Sun Lakes, Arizona
Current Conditions -  °F | °C
As of 5:47 PM on Saturday 25 Oct 2014 (Local Time) from KCHD Reporting Station
Few Clouds Few Clouds  
Wind Chill: 90°   Ceiling: Unl
Heat Index: 90°   Visibility: 15mi
Dew Point: 52°   Wind: 6mph
Humidity: 27%   Direction: 290°WNW
Pressure: 29.9"   Gusts: NA
Location:  33.22°N, 111.87°W
Report Text: KCHD 260047Z 29005KT 15SM FEW150 32/11 A2990
Loading
Personal Weather Stations






























Interactive Weather Map
Tropical Storm Tracking
New forecast layout! Learn more

10-Day Weather Forecast

Advertisements
Track Severe Weather on mobile